Time;durP1;ratioP1;P1;durP2;ratioP2;P2;SDS_P1;SDS_P2;PMS_P1;PMS_P2;Temp;Humidity;BMP_temperature;BMP_pressure;BME280_temperature;BME280_humidity;BME280_pressure;Samples;Min_cycle;Max_cycle;Signal;HPM_P1;HPM_P2
2023/01/01 00:01:10;;;;;;;7.75;4.80;;;;;;;;;;5015212;28;20108;-63
2023/01/01 00:03:36;;;;;;;5.90;4.35;;;;;;;;;;5015028;28;20026;-62
2023/01/01 00:06:09;;;;;;;8.77;4.80;;;;;;;;;;5014689;28;20041;-62
2023/01/01 00:08:36;;;;;;;5.75;4.63;;;;;;;;;;5013401;28;20080;-62
2023/01/01 00:11:06;;;;;;;7.13;5.00;;;;;;;;;;5014698;28;20033;-62
2023/01/01 00:13:32;;;;;;;;;;;;;;;;;;5015121;28;20044;-62
2023/01/01 00:16:11;;;;;;;7.28;4.25;;;;;;;;;;5014451;28;20011;-62
2023/01/01 00:18:37;;;;;;;5.83;4.43;;;;;;;;;;5014876;28;20024;-62
2023/01/01 00:21:13;;;;;;;5.80;4.55;;;;;;;;;;5014631;28;20452;-62
2023/01/01 00:23:40;;;;;;;5.82;4.20;;;;;;;;;;5014431;28;20428;-62
2023/01/01 00:26:14;;;;;;;6.50;4.25;;;;;;;;;;5014499;28;20026;-63
2023/01/01 00:28:40;;;;;;;6.20;4.43;;;;;;;;;;5014425;28;20026;-63
2023/01/01 00:31:18;;;;;;;5.57;4.07;;;;;;;;;;5014641;28;20037;-62
2023/01/01 00:33:53;;;;;;;6.43;4.68;;;;;;;;;;5014389;28;20022;-62
2023/01/01 00:36:21;;;;;;;6.35;4.05;;;;;;;;;;5014470;28;20033;-63
2023/01/01 00:38:47;;;;;;;8.35;4.43;;;;;;;;;;5014248;28;20018;-63
2023/01/01 00:41:14;;;;;;;5.47;4.43;;;;;;;;;;5014273;28;20021;-63
2023/01/01 00:43:40;;;;;;;7.22;4.47;;;;;;;;;;5014217;28;20057;-63
2023/01/01 00:46:06;;;;;;;5.32;4.20;;;;;;;;;;5014115;28;20076;-63
2023/01/01 00:48:32;;;;;;;8.25;4.53;;;;;;;;;;5013895;28;20033;-62
2023/01/01 00:50:58;;;;;;;5.35;4.03;;;;;;;;;;5014265;28;20028;-62
2023/01/01 00:53:24;;;;;;;5.88;4.40;;;;;;;;;;5014190;28;20481;-63
2023/01/01 00:55:51;;;;;;;5.70;4.07;;;;;;;;;;5014067;28;20428;-63
2023/01/01 00:58:18;;;;;;;5.85;4.15;;;;;;;;;;5013778;28;20030;-63
2023/01/01 01:00:44;;;;;;;7.40;4.50;;;;;;;;;;5014216;28;20159;-64
2023/01/01 01:03:26;;;;;;;5.22;4.10;;;;;;;;;;5013755;28;20026;-63
2023/01/01 01:06:14;;;;;;;6.15;4.05;;;;;;;;;;5014130;28;20045;-63
2023/01/01 01:08:42;;;;;;;8.13;4.63;;;;;;;;;;5013588;28;20026;-62
2023/01/01 01:11:10;;;;;;;5.88;4.40;;;;;;;;;;5013732;28;20034;-62
2023/01/01 01:13:36;;;;;;;6.25;4.53;;;;;;;;;;5011983;28;20041;-62
2023/01/01 01:16:23;;;;;;;6.32;4.10;;;;;;;;;;5013500;28;20030;-62
2023/01/01 01:18:50;;;;;;;7.85;4.38;;;;;;;;;;5013334;28;20026;-62
2023/01/01 01:21:18;;;;;;;5.65;4.00;;;;;;;;;;5013576;28;20490;-62
2023/01/01 01:23:43;;;;;;;5.95;4.15;;;;;;;;;;5013333;28;20045;-62
2023/01/01 01:26:18;;;;;;;5.88;4.25;;;;;;;;;;5012774;28;20037;-62
2023/01/01 01:28:44;;;;;;;4.65;3.90;;;;;;;;;;5013507;28;20038;-62
2023/01/01 01:31:10;;;;;;;6.40;4.32;;;;;;;;;;5013207;28;20026;-62
2023/01/01 01:33:36;;;;;;;4.38;3.63;;;;;;;;;;5013534;28;20028;-62
2023/01/01 01:36:03;;;;;;;7.47;4.18;;;;;;;;;;5013361;28;20385;-63
2023/01/01 01:38:28;;;;;;;5.10;3.75;;;;;;;;;;5013103;28;20467;-63
2023/01/01 01:40:54;;;;;;;5.90;4.28;;;;;;;;;;5013417;28;20028;-63
2023/01/01 01:43:31;;;;;;;5.80;4.05;;;;;;;;;;5013321;28;20481;-61
2023/01/01 01:46:05;;;;;;;7.53;4.38;;;;;;;;;;5013099;28;20085;-62
2023/01/01 01:48:39;;;;;;;4.95;4.05;;;;;;;;;;5010769;28;20030;-62
2023/01/01 01:51:05;;;;;;;5.55;4.22;;;;;;;;;;5007090;28;20044;-62
2023/01/01 01:53:34;;;;;;;4.68;3.80;;;;;;;;;;5010726;28;20430;-62
2023/01/01 01:56:07;;;;;;;4.72;3.97;;;;;;;;;;5010435;28;20018;-62
2023/01/01 01:58:34;;;;;;;4.68;4.10;;;;;;;;;;5007651;28;20026;-63
2023/01/01 02:00:59;;;;;;;4.95;3.83;;;;;;;;;;5007303;28;20036;-62
2023/01/01 02:03:32;;;;;;;4.70;3.80;;;;;;;;;;5007820;28;20402;-62
2023/01/01 02:05:58;;;;;;;5.30;4.03;;;;;;;;;;5008282;28;20093;-62
2023/01/01 02:08:25;;;;;;;4.82;3.78;;;;;;;;;;5010923;28;20117;-62
2023/01/01 02:10:50;;;;;;;5.60;3.72;;;;;;;;;;5011126;28;20117;-62
2023/01/01 02:13:16;;;;;;;4.25;3.83;;;;;;;;;;5011989;28;20112;-62
2023/01/01 02:15:55;;;;;;;5.75;4.00;;;;;;;;;;5011634;28;20026;-63
2023/01/01 02:18:39;;;;;;;7.15;4.78;;;;;;;;;;5012266;28;20474;-62
2023/01/01 02:21:11;;;;;;;4.70;3.95;;;;;;;;;;5012596;28;20045;-62
2023/01/01 02:24:18;;;;;;;5.68;4.10;;;;;;;;;;5012424;28;20042;-62
2023/01/01 02:26:53;;;;;;;4.65;3.83;;;;;;;;;;5012244;28;20468;-62
2023/01/01 02:29:29;;;;;;;5.22;3.88;;;;;;;;;;5012597;28;20030;-62
2023/01/01 02:32:29;;;;;;;5.50;3.65;;;;;;;;;;5012798;28;20113;-62
2023/01/01 02:35:37;;;;;;;4.47;3.75;;;;;;;;;;5002042;28;20457;-62
2023/01/01 02:38:33;;;;;;;4.80;3.55;;;;;;;;;;5012445;28;20030;-62
2023/01/01 02:41:06;;;;;;;4.45;3.67;;;;;;;;;;5016775;28;20050;-62
2023/01/01 02:43:32;;;;;;;5.20;3.80;;;;;;;;;;5016731;28;20026;-62
2023/01/01 02:45:58;;;;;;;5.53;3.97;;;;;;;;;;5016359;28;20026;-62
2023/01/01 02:48:43;;;;;;;5.65;3.95;;;;;;;;;;5016444;28;20021;-62
2023/01/01 02:51:46;;;;;;;4.70;3.80;;;;;;;;;;5016194;28;20022;-62
2023/01/01 02:54:24;;;;;;;6.15;3.85;;;;;;;;;;5016181;28;20481;-62
2023/01/01 02:56:59;;;;;;;5.07;3.80;;;;;;;;;;5016486;28;20095;-62
2023/01/01 03:02:33;;;;;;;4.82;3.83;;;;;;;;;;5016227;28;20133;-62
2023/01/01 03:05:13;;;;;;;4.50;3.78;;;;;;;;;;5016342;28;20405;-62
2023/01/01 03:07:38;;;;;;;;;;;;;;;;;;5016516;28;20030;-62
2023/01/01 03:10:14;;;;;;;4.47;3.67;;;;;;;;;;5015845;28;20004;-62
2023/01/01 03:13:01;;;;;;;4.47;3.45;;;;;;;;;;5015944;28;20041;-62
2023/01/01 03:15:47;;;;;;;4.93;3.60;;;;;;;;;;5015963;28;20029;-62
2023/01/01 03:18:20;;;;;;;4.10;3.70;;;;;;;;;;5015754;28;20034;-62
2023/01/01 03:20:49;;;;;;;4.15;3.70;;;;;;;;;;5015799;28;20116;-62
2023/01/01 03:23:20;;;;;;;5.22;3.90;;;;;;;;;;5015562;28;20520;-62
2023/01/01 03:25:52;;;;;;;4.43;3.85;;;;;;;;;;5016023;28;20036;-62
2023/01/01 03:28:22;;;;;;;4.65;3.85;;;;;;;;;;5015651;28;20388;-63
2023/01/01 03:30:50;;;;;;;4.70;3.88;;;;;;;;;;5015571;28;20037;-62
2023/01/01 03:33:40;;;;;;;4.35;3.83;;;;;;;;;;5015533;28;20076;-62
2023/01/01 03:36:11;;;;;;;4.63;3.70;;;;;;;;;;5015837;28;20351;-62
2023/01/01 03:38:42;;;;;;;4.68;3.60;;;;;;;;;;5015307;28;20474;-62
2023/01/01 03:41:18;;;;;;;5.60;3.70;;;;;;;;;;5015570;28;20121;-62
2023/01/01 03:44:00;;;;;;;5.05;3.70;;;;;;;;;;5015551;28;20108;-62
2023/01/01 03:46:32;;;;;;;4.43;3.60;;;;;;;;;;5015459;28;20386;-62
2023/01/01 03:48:59;;;;;;;4.35;3.50;;;;;;;;;;5015051;28;20037;-62
2023/01/01 03:51:59;;;;;;;4.88;3.50;;;;;;;;;;5015104;28;20029;-62
2023/01/01 03:54:44;;;;;;;4.72;3.50;;;;;;;;;;5015217;28;20041;-62
2023/01/01 03:57:22;;;;;;;4.55;3.80;;;;;;;;;;5001238;28;20053;-62
2023/01/01 04:00:15;;;;;;;4.35;3.63;;;;;;;;;;5015195;28;20121;-62
2023/01/01 04:02:48;;;;;;;4.35;3.53;;;;;;;;;;5014961;28;20022;-62
2023/01/01 04:05:15;;;;;;;3.90;3.40;;;;;;;;;;5015268;28;20045;-62
2023/01/01 04:07:40;;;;;;;4.50;3.88;;;;;;;;;;5015119;28;20034;-62
2023/01/01 04:10:16;;;;;;;4.85;3.60;;;;;;;;;;5014846;28;20096;-62
2023/01/01 04:12:51;;;;;;;4.10;3.70;;;;;;;;;;5014639;28;20030;-62
2023/01/01 04:15:19;;;;;;;4.90;3.88;;;;;;;;;;5014887;28;20494;-62
2023/01/01 04:17:45;;;;;;;4.50;3.67;;;;;;;;;;5015016;28;20034;-62
2023/01/01 04:20:12;;;;;;;4.13;3.40;;;;;;;;;;5015024;28;20028;-62
2023/01/01 04:22:37;;;;;;;3.95;3.55;;;;;;;;;;5014415;28;20049;-62
2023/01/01 04:25:04;;;;;;;4.70;3.70;;;;;;;;;;5014712;28;20026;-62
2023/01/01 04:27:30;;;;;;;3.80;3.25;;;;;;;;;;5014805;28;20034;-62
2023/01/01 04:29:55;;;;;;;3.90;3.30;;;;;;;;;;5014813;28;20520;-62
2023/01/01 04:32:21;;;;;;;4.50;3.63;;;;;;;;;;5014385;28;20448;-62
2023/01/01 04:34:46;;;;;;;5.70;3.47;;;;;;;;;;5015033;28;20101;-62
2023/01/01 04:37:12;;;;;;;3.85;3.38;;;;;;;;;;5014405;28;20102;-62
2023/01/01 04:39:38;;;;;;;3.88;3.17;;;;;;;;;;5014438;28;20105;-62
2023/01/01 04:42:03;;;;;;;4.53;3.55;;;;;;;;;;5014598;28;20088;-62
2023/01/01 04:44:29;;;;;;;4.75;3.45;;;;;;;;;;5014317;28;20076;-63
2023/01/01 04:46:54;;;;;;;5.60;4.20;;;;;;;;;;5014493;28;20022;-62
2023/01/01 04:49:20;;;;;;;4.70;3.97;;;;;;;;;;5014430;28;20034;-62
2023/01/01 04:51:46;;;;;;;4.65;3.47;;;;;;;;;;5014048;28;20026;-62
2023/01/01 04:54:11;;;;;;;4.47;3.38;;;;;;;;;;5014153;28;20029;-62
2023/01/01 04:56:37;;;;;;;4.35;3.95;;;;;;;;;;5013907;28;20025;-62
2023/01/01 04:59:02;;;;;;;4.18;3.10;;;;;;;;;;5014258;28;20030;-62
2023/01/01 05:01:29;;;;;;;5.03;3.65;;;;;;;;;;5013036;28;20446;-62
2023/01/01 05:03:55;;;;;;;3.95;3.50;;;;;;;;;;5013896;28;20084;-62
2023/01/01 05:06:21;;;;;;;4.32;3.30;;;;;;;;;;5014066;28;20029;-62
2023/01/01 05:08:49;;;;;;;4.00;3.60;;;;;;;;;;5014148;28;20022;-62
2023/01/01 05:11:20;;;;;;;4.88;3.88;;;;;;;;;;5013652;28;20064;-62
2023/01/01 05:13:48;;;;;;;4.30;3.65;;;;;;;;;;5013793;28;20065;-62
2023/01/01 05:16:17;;;;;;;5.78;3.45;;;;;;;;;;5013595;28;20028;-62
2023/01/01 05:18:43;;;;;;;4.03;3.63;;;;;;;;;;5013642;28;20034;-62
2023/01/01 05:21:14;;;;;;;4.93;3.55;;;;;;;;;;5013569;28;20096;-62
2023/01/01 05:23:40;;;;;;;4.90;3.50;;;;;;;;;;5013274;28;20517;-62
2023/01/01 05:26:16;;;;;;;5.05;4.53;;;;;;;;;;5013716;28;20033;-62
2023/01/01 05:28:42;;;;;;;5.25;3.80;;;;;;;;;;5013399;28;20057;-62
2023/01/01 05:31:11;;;;;;;5.43;3.60;;;;;;;;;;5013262;28;20030;-62
2023/01/01 05:33:37;;;;;;;3.65;3.35;;;;;;;;;;5013262;28;20026;-62
2023/01/01 05:36:04;;;;;;;5.35;3.53;;;;;;;;;;5013287;28;20084;-62
2023/01/01 05:38:30;;;;;;;4.75;3.78;;;;;;;;;;5013108;28;20060;-62
2023/01/01 05:40:56;;;;;;;4.40;3.70;;;;;;;;;;5013289;28;20061;-62
2023/01/01 05:43:22;;;;;;;3.75;3.35;;;;;;;;;;5013449;28;20032;-62
2023/01/01 05:45:47;;;;;;;5.18;3.35;;;;;;;;;;5013147;28;20120;-62
2023/01/01 05:48:13;;;;;;;5.97;3.63;;;;;;;;;;5013145;28;20064;-63
2023/01/01 05:50:38;;;;;;;4.38;3.70;;;;;;;;;;5013406;28;20033;-63
2023/01/01 05:53:04;;;;;;;4.47;3.80;;;;;;;;;;5012958;28;20490;-62
2023/01/01 05:55:30;;;;;;;4.07;3.42;;;;;;;;;;5013075;28;20076;-62
2023/01/01 05:57:56;;;;;;;4.13;3.55;;;;;;;;;;5013061;28;20014;-62
2023/01/01 06:00:21;;;;;;;4.55;3.30;;;;;;;;;;5012928;28;20528;-62
2023/01/01 06:02:48;;;;;;;4.78;3.45;;;;;;;;;;5012845;28;20038;-62
2023/01/01 06:05:14;;;;;;;5.07;3.78;;;;;;;;;;5013197;28;20040;-62
2023/01/01 06:07:40;;;;;;;4.10;3.70;;;;;;;;;;5013104;28;20038;-62
2023/01/01 06:10:05;;;;;;;4.28;3.60;;;;;;;;;;5013181;28;20022;-62
2023/01/01 06:12:31;;;;;;;5.65;3.70;;;;;;;;;;5012775;28;20022;-62
2023/01/01 06:14:57;;;;;;;4.65;3.83;;;;;;;;;;5012781;28;20425;-62
2023/01/01 06:17:23;;;;;;;4.53;3.55;;;;;;;;;;5012823;28;20482;-62
2023/01/01 06:19:49;;;;;;;4.15;3.58;;;;;;;;;;5013037;28;20076;-62
2023/01/01 06:22:14;;;;;;;4.47;3.60;;;;;;;;;;5012525;28;20500;-62
2023/01/01 06:24:40;;;;;;;5.07;3.65;;;;;;;;;;5012992;28;20030;-62
2023/01/01 06:27:06;;;;;;;4.60;3.67;;;;;;;;;;5012620;28;20486;-63
2023/01/01 06:29:31;;;;;;;5.32;3.55;;;;;;;;;;5012611;28;20026;-63
2023/01/01 06:31:57;;;;;;;4.97;3.83;;;;;;;;;;5012720;28;20037;-62
2023/01/01 06:34:22;;;;;;;4.80;3.85;;;;;;;;;;5012548;28;20026;-62
2023/01/01 06:36:48;;;;;;;4.90;3.58;;;;;;;;;;5012625;28;20022;-62
2023/01/01 06:39:13;;;;;;;3.88;3.47;;;;;;;;;;5012802;28;20381;-63
2023/01/01 06:41:39;;;;;;;3.90;3.42;;;;;;;;;;5012736;28;20048;-62
2023/01/01 06:44:05;;;;;;;4.82;3.60;;;;;;;;;;4995281;28;20347;-62
2023/01/01 06:46:32;;;;;;;4.38;3.70;;;;;;;;;;5012557;28;20396;-62
2023/01/01 06:49:06;;;;;;;4.72;3.75;;;;;;;;;;5012441;28;20111;-63
2023/01/01 06:51:42;;;;;;;5.07;3.80;;;;;;;;;;5012272;28;20026;-62
2023/01/01 06:54:09;;;;;;;5.15;3.90;;;;;;;;;;5012706;28;20026;-62
2023/01/01 06:56:35;;;;;;;4.03;3.47;;;;;;;;;;5012225;28;20478;-62
2023/01/01 06:59:01;;;;;;;4.65;3.67;;;;;;;;;;5012395;28;20037;-62
2023/01/01 07:01:29;;;;;;;4.97;3.75;;;;;;;;;;5012368;28;20021;-62
2023/01/01 07:03:59;;;;;;;4.03;3.40;;;;;;;;;;5012287;28;20073;-62
2023/01/01 07:06:27;;;;;;;3.85;3.38;;;;;;;;;;5012275;28;20427;-62
2023/01/01 07:08:52;;;;;;;4.13;3.60;;;;;;;;;;5012265;28;20038;-62
2023/01/01 07:11:18;;;;;;;6.55;3.97;;;;;;;;;;5012178;28;20033;-62
2023/01/01 07:13:44;;;;;;;5.63;3.97;;;;;;;;;;5012518;28;20045;-62
2023/01/01 07:16:09;;;;;;;5.35;3.65;;;;;;;;;;5012448;28;20426;-63
2023/01/01 07:18:35;;;;;;;3.90;3.15;;;;;;;;;;5012461;28;20413;-62
2023/01/01 07:21:04;;;;;;;4.78;3.65;;;;;;;;;;5012086;28;20030;-62
2023/01/01 07:23:32;;;;;;;4.15;3.75;;;;;;;;;;5011901;28;20525;-63
2023/01/01 07:25:58;;;;;;;3.75;3.45;;;;;;;;;;5015040;28;20028;-62
2023/01/01 07:28:25;;;;;;;6.07;4.10;;;;;;;;;;5015727;28;20030;-63
2023/01/01 07:30:53;;;;;;;6.20;3.92;;;;;;;;;;5015609;28;20117;-63
2023/01/01 07:33:21;;;;;;;4.10;3.60;;;;;;;;;;5015854;28;20033;-63
2023/01/01 07:35:47;;;;;;;4.93;3.90;;;;;;;;;;5015603;28;20033;-63
2023/01/01 07:38:14;;;;;;;5.43;3.65;;;;;;;;;;5015839;28;20022;-63
2023/01/01 07:40:40;;;;;;;4.90;3.80;;;;;;;;;;5015490;28;20034;-63
2023/01/01 07:43:06;;;;;;;6.03;4.18;;;;;;;;;;5015731;28;20550;-63
2023/01/01 07:45:32;;;;;;;7.32;3.65;;;;;;;;;;5015362;28;20109;-64
2023/01/01 07:47:58;;;;;;;5.00;4.00;;;;;;;;;;5015595;28;20068;-63
2023/01/01 07:50:27;;;;;;;4.95;3.63;;;;;;;;;;5015362;28;20065;-64
2023/01/01 07:52:53;;;;;;;4.82;4.00;;;;;;;;;;5015500;28;20402;-63
2023/01/01 07:55:19;;;;;;;4.18;3.75;;;;;;;;;;5015143;28;20014;-64
2023/01/01 07:57:45;;;;;;;4.03;3.63;;;;;;;;;;5015250;28;20084;-63
2023/01/01 08:00:13;;;;;;;4.32;3.63;;;;;;;;;;5015072;28;20477;-63
2023/01/01 08:02:39;;;;;;;5.30;4.03;;;;;;;;;;5015129;28;20117;-63
2023/01/01 08:05:06;;;;;;;4.80;4.10;;;;;;;;;;5015027;28;20068;-63
2023/01/01 08:07:31;;;;;;;4.43;3.80;;;;;;;;;;5015096;28;20037;-64
2023/01/01 08:09:57;;;;;;;4.53;3.65;;;;;;;;;;5015209;28;20030;-63
2023/01/01 08:12:23;;;;;;;5.10;3.78;;;;;;;;;;5015043;28;20034;-63
2023/01/01 08:14:48;;;;;;;3.90;3.50;;;;;;;;;;5014787;28;20477;-63
2023/01/01 08:17:14;;;;;;;4.43;3.88;;;;;;;;;;5014807;28;20167;-63
2023/01/01 08:19:39;;;;;;;4.47;3.50;;;;;;;;;;5014940;28;20034;-63
2023/01/01 08:22:05;;;;;;;4.03;3.63;;;;;;;;;;5014688;28;20045;-64
2023/01/01 08:24:30;;;;;;;4.38;3.78;;;;;;;;;;5014521;28;20049;-63
2023/01/01 08:26:56;;;;;;;4.75;3.88;;;;;;;;;;5014700;28;20057;-64
2023/01/01 08:29:21;;;;;;;4.80;3.90;;;;;;;;;;5014587;28;20025;-64
2023/01/01 08:31:47;;;;;;;5.75;3.90;;;;;;;;;;5014570;28;20036;-63
2023/01/01 08:34:12;;;;;;;5.05;3.95;;;;;;;;;;4996884;28;20040;-63
2023/01/01 08:36:39;;;;;;;5.43;3.58;;;;;;;;;;5014652;28;20065;-63
2023/01/01 08:39:06;;;;;;;7.10;3.72;;;;;;;;;;5014396;28;20080;-64
2023/01/01 08:41:32;;;;;;;5.13;4.05;;;;;;;;;;5014595;28;20092;-64
2023/01/01 08:43:57;;;;;;;5.03;3.60;;;;;;;;;;5014344;28;20474;-65
2023/01/01 08:46:23;;;;;;;4.80;3.53;;;;;;;;;;5014228;28;20030;-65
2023/01/01 08:48:48;;;;;;;4.60;3.58;;;;;;;;;;5014208;28;20018;-66
2023/01/01 08:51:14;;;;;;;4.93;3.65;;;;;;;;;;5014181;28;20438;-65
2023/01/01 08:53:39;;;;;;;4.63;3.80;;;;;;;;;;5014120;28;20393;-65
2023/01/01 08:56:08;;;;;;;4.13;3.72;;;;;;;;;;5014387;28;20061;-64
2023/01/01 08:58:35;;;;;;;4.88;3.75;;;;;;;;;;5014070;28;20101;-63
2023/01/01 09:01:00;;;;;;;4.72;3.95;;;;;;;;;;5013957;28;20474;-64
2023/01/01 09:03:26;;;;;;;4.25;3.47;;;;;;;;;;5013950;28;20033;-64
2023/01/01 09:05:52;;;;;;;5.93;3.70;;;;;;;;;;5013898;28;20026;-64
2023/01/01 09:08:19;;;;;;;4.97;3.42;;;;;;;;;;5014161;28;20037;-64
2023/01/01 09:10:45;;;;;;;4.53;3.63;;;;;;;;;;5013823;28;20057;-64
2023/01/01 09:13:14;;;;;;;4.50;3.75;;;;;;;;;;5013664;28;20037;-63
2023/01/01 09:15:41;;;;;;;4.30;3.90;;;;;;;;;;5013673;28;20030;-64
2023/01/01 09:18:08;;;;;;;6.10;3.72;;;;;;;;;;5013705;28;20030;-63
2023/01/01 09:20:34;;;;;;;4.13;3.58;;;;;;;;;;5013529;28;20041;-63
2023/01/01 09:22:59;;;;;;;5.15;3.70;;;;;;;;;;5013521;28;20465;-63
2023/01/01 09:25:25;;;;;;;4.25;3.42;;;;;;;;;;5013587;28;20025;-64
2023/01/01 09:28:10;;;;;;;4.53;3.58;;;;;;;;;;5013599;28;20496;-65
2023/01/01 09:30:36;;;;;;;5.28;3.85;;;;;;;;;;5013685;28;20026;-64
2023/01/01 09:33:02;;;;;;;7.25;3.75;;;;;;;;;;5013357;28;20029;-65
2023/01/01 09:35:28;;;;;;;4.30;3.60;;;;;;;;;;5013439;28;20030;-64
2023/01/01 09:37:54;;;;;;;4.07;3.67;;;;;;;;;;5013299;28;20037;-65
2023/01/01 09:40:50;;;;;;;4.40;3.70;;;;;;;;;;5013264;28;20037;-65
2023/01/01 09:43:24;;;;;;;3.83;3.30;;;;;;;;;;5013216;28;20032;-65
2023/01/01 09:46:00;;;;;;;5.28;3.42;;;;;;;;;;5013271;28;20025;-65
2023/01/01 09:48:30;;;;;;;4.85;3.70;;;;;;;;;;5012713;28;20045;-65
2023/01/01 09:50:57;;;;;;;4.65;3.38;;;;;;;;;;5013118;28;20037;-64
2023/01/01 09:53:41;;;;;;;3.55;3.22;;;;;;;;;;5012997;28;20499;-64
2023/01/01 09:56:13;;;;;;;6.25;3.90;;;;;;;;;;5013153;28;20030;-64
2023/01/01 09:58:39;;;;;;;3.85;3.40;;;;;;;;;;5013194;28;20034;-64
2023/01/01 10:01:29;;;;;;;4.68;3.72;;;;;;;;;;5013030;28;20036;-64
2023/01/01 10:04:25;;;;;;;3.90;3.50;;;;;;;;;;5012994;28;20105;-64
2023/01/01 10:07:11;;;;;;;4.88;3.78;;;;;;;;;;5012985;28;20033;-64
2023/01/01 10:10:01;;;;;;;4.47;3.40;;;;;;;;;;5013133;28;20381;-64
2023/01/01 10:12:41;;;;;;;4.20;3.60;;;;;;;;;;5012832;28;20061;-64
2023/01/01 10:15:33;;;;;;;3.90;3.35;;;;;;;;;;5013101;28;20033;-64
2023/01/01 10:18:03;;;;;;;4.75;3.83;;;;;;;;;;5013121;28;20049;-64
2023/01/01 10:20:42;;;;;;;4.93;3.80;;;;;;;;;;5013206;28;20100;-64
2023/01/01 10:23:23;;;;;;;6.38;3.85;;;;;;;;;;5012530;28;20053;-64
2023/01/01 10:25:48;;;;;;;;;;;;;;;;;;5013175;28;20417;-64
2023/01/01 10:28:53;;;;;;;4.65;3.75;;;;;;;;;;5012576;28;19921;-65
2023/01/01 10:31:48;;;;;;;3.85;3.45;;;;;;;;;;4995115;28;20033;-64
2023/01/01 10:34:23;;;;;;;4.50;3.65;;;;;;;;;;4995523;28;20034;-64
2023/01/01 10:36:53;;;;;;;3.97;3.50;;;;;;;;;;5012447;28;20054;-64
2023/01/01 10:39:19;;;;;;;;;;;;;;;;;;5013074;28;20041;-64
2023/01/01 10:41:47;;;;;;;4.18;3.53;;;;;;;;;;5012378;28;19914;-64
2023/01/01 10:44:15;;;;;;;5.13;3.70;;;;;;;;;;4994711;28;20022;-64
2023/01/01 10:46:46;;;;;;;3.83;3.40;;;;;;;;;;5012616;28;20648;-64
2023/01/01 10:49:13;;;;;;;3.85;3.28;;;;;;;;;;5012565;28;20105;-64
2023/01/01 10:51:45;;;;;;;4.28;3.78;;;;;;;;;;5012567;28;20030;-64
2023/01/01 10:54:35;;;;;;;4.60;3.40;;;;;;;;;;5012275;28;20034;-63
2023/01/01 10:57:22;;;;;;;4.03;3.67;;;;;;;;;;5002646;28;20041;-63
2023/01/01 10:59:48;;;;;;;4.53;3.63;;;;;;;;;;5013471;28;20441;-64
2023/01/01 11:02:17;;;;;;;4.07;3.20;;;;;;;;;;5015977;28;20149;-64
2023/01/01 11:04:43;;;;;;;3.72;3.38;;;;;;;;;;5016108;28;20030;-64
2023/01/01 11:07:17;;;;;;;4.45;3.50;;;;;;;;;;5016265;28;20026;-64
2023/01/01 11:09:48;;;;;;;5.45;3.20;;;;;;;;;;5016395;28;20022;-64
2023/01/01 11:12:20;;;;;;;4.55;3.70;;;;;;;;;;5015839;28;20037;-63
2023/01/01 11:14:52;;;;;;;4.43;3.53;;;;;;;;;;5014248;28;20385;-63
2023/01/01 11:17:36;;;;;;;4.47;3.15;;;;;;;;;;5013748;28;20036;-63
2023/01/01 11:20:04;;;;;;;3.78;3.38;;;;;;;;;;5014295;28;20100;-62
2023/01/01 11:22:44;;;;;;;4.07;3.53;;;;;;;;;;5014356;28;20069;-65
2023/01/01 11:25:24;;;;;;;4.35;3.58;;;;;;;;;;5009941;28;20037;-65
2023/01/01 11:27:51;;;;;;;4.05;3.47;;;;;;;;;;5009414;28;20029;-65
2023/01/01 11:30:26;;;;;;;3.97;3.60;;;;;;;;;;5015742;28;20470;-65
2023/01/01 11:33:02;;;;;;;4.13;3.70;;;;;;;;;;5014526;28;20040;-66
2023/01/01 11:35:31;;;;;;;7.32;3.63;;;;;;;;;;5015671;28;20478;-67
2023/01/01 11:38:05;;;;;;;4.00;3.60;;;;;;;;;;5012452;28;20041;-63
2023/01/01 11:40:44;;;;;;;4.72;3.40;;;;;;;;;;5015240;28;20112;-64
2023/01/01 11:43:20;;;;;;;3.67;3.17;;;;;;;;;;5014408;28;20076;-63
2023/01/01 11:45:46;;;;;;;4.20;3.40;;;;;;;;;;5015759;28;20029;-63
2023/01/01 11:48:28;;;;;;;4.22;3.60;;;;;;;;;;5015002;28;20018;-65
2023/01/01 11:51:06;;;;;;;3.75;3.38;;;;;;;;;;4995806;28;20100;-64
2023/01/01 11:53:36;;;;;;;4.65;4.00;;;;;;;;;;4999356;28;20034;-65
2023/01/01 11:56:11;;;;;;;5.60;3.25;;;;;;;;;;5013493;28;20030;-65
2023/01/01 11:58:52;;;;;;;4.15;3.63;;;;;;;;;;5009151;28;20026;-66
2023/01/01 12:01:18;;;;;;;3.85;3.38;;;;;;;;;;5010291;28;20497;-66
2023/01/01 12:03:46;;;;;;;5.18;3.65;;;;;;;;;;5005997;28;20109;-63
2023/01/01 12:06:33;;;;;;;4.28;3.78;;;;;;;;;;5006068;28;20022;-66
2023/01/01 12:09:20;;;;;;;4.22;3.63;;;;;;;;;;5014117;28;20026;-64
2023/01/01 12:11:46;;;;;;;4.43;3.70;;;;;;;;;;5014346;28;20060;-64
2023/01/01 12:14:30;;;;;;;3.92;3.20;;;;;;;;;;5014855;28;20022;-65
2023/01/01 12:17:17;;;;;;;3.67;3.28;;;;;;;;;;5014873;28;20072;-65
2023/01/01 12:20:01;;;;;;;6.25;3.53;;;;;;;;;;5014778;28;20040;-66
2023/01/01 12:22:26;;;;;;;4.10;3.65;;;;;;;;;;5014589;28;20054;-66
2023/01/01 12:24:53;;;;;;;5.72;3.80;;;;;;;;;;5012664;28;20524;-66
2023/01/01 12:27:56;;;;;;;4.35;3.60;;;;;;;;;;5014189;28;20422;-66
2023/01/01 12:31:13;;;;;;;3.60;3.30;;;;;;;;;;5014328;28;20034;-65
2023/01/01 12:33:57;;;;;;;4.20;3.60;;;;;;;;;;4948459;28;20098;-66
2023/01/01 12:36:57;;;;;;;5.45;3.50;;;;;;;;;;5012578;28;20022;-66
2023/01/01 12:39:54;;;;;;;5.35;3.85;;;;;;;;;;5012296;28;20108;-66
2023/01/01 12:42:37;;;;;;;4.47;3.90;;;;;;;;;;4994991;28;20026;-66
2023/01/01 12:45:30;;;;;;;4.75;3.72;;;;;;;;;;4994974;28;20109;-66
2023/01/01 12:48:13;;;;;;;7.95;4.53;;;;;;;;;;4994654;28;20029;-65
2023/01/01 12:50:42;;;;;;;5.53;4.35;;;;;;;;;;4994563;28;20026;-65
2023/01/01 12:53:52;;;;;;;6.43;4.63;;;;;;;;;;4994673;28;20057;-65
2023/01/01 12:56:18;;;;;;;7.25;4.78;;;;;;;;;;4918408;28;20109;-66
2023/01/01 12:58:47;;;;;;;6.72;4.45;;;;;;;;;;4994496;28;20110;-66
2023/01/01 13:01:27;;;;;;;5.65;4.35;;;;;;;;;;4994417;28;20085;-66
2023/01/01 13:03:58;;;;;;;7.38;4.15;;;;;;;;;;4993497;28;20379;-66
2023/01/01 13:06:46;;;;;;;7.93;4.25;;;;;;;;;;4994267;28;20301;-65
2023/01/01 13:09:18;;;;;;;7.20;4.78;;;;;;;;;;4994158;28;20026;-66
2023/01/01 13:12:06;;;;;;;6.93;4.78;;;;;;;;;;4994270;28;20084;-65
2023/01/01 13:14:43;;;;;;;5.35;4.63;;;;;;;;;;4993491;28;20026;-65
2023/01/01 13:17:23;;;;;;;7.30;5.00;;;;;;;;;;4994134;28;20041;-65
2023/01/01 13:19:55;;;;;;;5.20;4.68;;;;;;;;;;4976619;28;20057;-66
2023/01/01 13:22:24;;;;;;;5.22;4.28;;;;;;;;;;4993264;28;20490;-65
2023/01/01 13:25:21;;;;;;;5.75;4.65;;;;;;;;;;4994001;28;20045;-65
2023/01/01 13:27:56;;;;;;;7.05;5.03;;;;;;;;;;4974687;28;20121;-65
2023/01/01 13:30:37;;;;;;;4.97;4.40;;;;;;;;;;4993853;28;20062;-65
2023/01/01 13:33:22;;;;;;;5.38;4.57;;;;;;;;;;4993800;28;20022;-65
2023/01/01 13:36:07;;;;;;;5.97;4.55;;;;;;;;;;4993886;28;20492;-65
2023/01/01 13:38:45;;;;;;;5.35;4.45;;;;;;;;;;4993977;28;20030;-65
2023/01/01 13:41:26;;;;;;;7.85;5.50;;;;;;;;;;4992987;28;20030;-65
2023/01/01 13:44:03;;;;;;;6.03;4.75;;;;;;;;;;4993725;28;20447;-66
2023/01/01 13:46:32;;;;;;;6.57;4.68;;;;;;;;;;4993568;28;20073;-65
2023/01/01 13:49:31;;;;;;;12.05;5.30;;;;;;;;;;4993676;28;20093;-65
2023/01/01 13:52:02;;;;;;;5.63;4.67;;;;;;;;;;4993686;28;20045;-65
2023/01/01 13:55:07;;;;;;;5.20;4.70;;;;;;;;;;4993792;28;20088;-65
2023/01/01 13:57:51;;;;;;;6.47;4.90;;;;;;;;;;4991249;28;20038;-65
2023/01/01 14:00:21;;;;;;;7.15;4.70;;;;;;;;;;4993510;28;20026;-65
2023/01/01 14:02:59;;;;;;;7.55;4.45;;;;;;;;;;4993614;28;20030;-65
2023/01/01 14:05:32;;;;;;;5.60;4.78;;;;;;;;;;4975857;28;20478;-65
2023/01/01 14:07:58;;;;;;;6.13;4.97;;;;;;;;;;4993332;28;20280;-65
2023/01/01 14:10:29;;;;;;;6.63;4.63;;;;;;;;;;4993234;28;20297;-65
2023/01/01 14:13:04;;;;;;;5.85;4.85;;;;;;;;;;4993166;28;20030;-66
2023/01/01 14:15:49;;;;;;;5.75;4.85;;;;;;;;;;4993160;28;20019;-65
2023/01/01 14:18:17;;;;;;;6.43;4.88;;;;;;;;;;4993159;28;20478;-66
2023/01/01 14:20:49;;;;;;;6.45;4.88;;;;;;;;;;4975836;28;20053;-66
2023/01/01 14:23:37;;;;;;;5.22;4.63;;;;;;;;;;4993127;28;20561;-66
2023/01/01 14:26:09;;;;;;;4.75;4.25;;;;;;;;;;4994449;28;20421;-66
2023/01/01 14:28:36;;;;;;;5.45;4.50;;;;;;;;;;4993626;28;20019;-65
2023/01/01 14:31:05;;;;;;;5.50;4.50;;;;;;;;;;4993010;28;20089;-66
2023/01/01 14:33:32;;;;;;;7.53;4.75;;;;;;;;;;4993990;28;20062;-65
2023/01/01 14:36:04;;;;;;;5.97;4.50;;;;;;;;;;4999476;28;20482;-66
2023/01/01 14:38:34;;;;;;;5.53;4.70;;;;;;;;;;4999515;28;20034;-65
2023/01/01 14:41:12;;;;;;;6.55;4.88;;;;;;;;;;4999318;28;20086;-65
2023/01/01 14:43:40;;;;;;;5.18;4.40;;;;;;;;;;4999456;28;20450;-65
2023/01/01 14:46:07;;;;;;;5.28;4.30;;;;;;;;;;4999317;28;20027;-66
2023/01/01 14:48:34;;;;;;;6.78;5.05;;;;;;;;;;4999439;28;20022;-65
2023/01/01 14:50:59;;;;;;;6.32;4.50;;;;;;;;;;4999315;28;20057;-65
2023/01/01 14:53:32;;;;;;;6.53;4.70;;;;;;;;;;4999591;28;20030;-65
2023/01/01 14:55:58;;;;;;;4.75;4.18;;;;;;;;;;4999309;28;20470;-65
2023/01/01 14:58:28;;;;;;;6.72;4.53;;;;;;;;;;4999260;28;20029;-65
2023/01/01 15:01:13;;;;;;;5.07;4.13;;;;;;;;;;4999292;28;20497;-65
2023/01/01 15:03:38;;;;;;;5.28;4.47;;;;;;;;;;4981673;28;20045;-65
2023/01/01 15:06:06;;;;;;;5.55;4.60;;;;;;;;;;4999481;28;20019;-65
2023/01/01 15:08:31;;;;;;;6.28;4.97;;;;;;;;;;4999349;28;20059;-65
2023/01/01 15:10:57;;;;;;;4.30;3.90;;;;;;;;;;4999401;28;20023;-65
2023/01/01 15:13:25;;;;;;;6.72;5.00;;;;;;;;;;4999047;28;20422;-65
2023/01/01 15:15:56;;;;;;;5.40;4.38;;;;;;;;;;4999015;28;20026;-65